sensor_id;sensor_type;location;lat;lon;timestamp;P1;durP1;ratioP1;P2;durP2;ratioP2
74523;SDS011;63074;44.696;10.358;2023-05-14T00:02:23;2.63;;;1.15;;
74523;SDS011;63074;44.696;10.358;2023-05-14T00:04:49;1.30;;;0.80;;
74523;SDS011;63074;44.696;10.358;2023-05-14T00:07:15;1.17;;;0.60;;
74523;SDS011;63074;44.696;10.358;2023-05-14T00:09:42;1.40;;;0.77;;
74523;SDS011;63074;44.696;10.358;2023-05-14T00:12:08;1.17;;;0.88;;
74523;SDS011;63074;44.696;10.358;2023-05-14T00:14:34;1.63;;;0.93;;
74523;SDS011;63074;44.696;10.358;2023-05-14T00:17:00;1.95;;;0.52;;
74523;SDS011;63074;44.696;10.358;2023-05-14T00:19:27;1.67;;;0.60;;
74523;SDS011;63074;44.696;10.358;2023-05-14T00:21:53;2.33;;;0.88;;
74523;SDS011;63074;44.696;10.358;2023-05-14T00:24:19;1.30;;;0.65;;
74523;SDS011;63074;44.696;10.358;2023-05-14T00:26:45;3.03;;;1.15;;
74523;SDS011;63074;44.696;10.358;2023-05-14T00:29:11;2.67;;;1.25;;
74523;SDS011;63074;44.696;10.358;2023-05-14T00:31:37;2.63;;;1.20;;
74523;SDS011;63074;44.696;10.358;2023-05-14T00:34:03;2.55;;;0.93;;
74523;SDS011;63074;44.696;10.358;2023-05-14T00:36:30;3.08;;;1.13;;
74523;SDS011;63074;44.696;10.358;2023-05-14T00:38:56;1.80;;;1.17;;
74523;SDS011;63074;44.696;10.358;2023-05-14T00:41:22;2.22;;;0.90;;
74523;SDS011;63074;44.696;10.358;2023-05-14T00:43:48;1.60;;;0.93;;
74523;SDS011;63074;44.696;10.358;2023-05-14T00:46:14;3.08;;;1.33;;
74523;SDS011;63074;44.696;10.358;2023-05-14T00:48:41;2.20;;;0.93;;
74523;SDS011;63074;44.696;10.358;2023-05-14T00:51:08;2.22;;;1.13;;
74523;SDS011;63074;44.696;10.358;2023-05-14T00:53:35;1.90;;;1.27;;
74523;SDS011;63074;44.696;10.358;2023-05-14T00:56:01;1.45;;;0.70;;
74523;SDS011;63074;44.696;10.358;2023-05-14T00:58:28;2.92;;;1.40;;
74523;SDS011;63074;44.696;10.358;2023-05-14T01:00:54;2.75;;;0.95;;
74523;SDS011;63074;44.696;10.358;2023-05-14T01:03:21;1.70;;;0.77;;
74523;SDS011;63074;44.696;10.358;2023-05-14T01:16:45;1.58;;;0.98;;
74523;SDS011;63074;44.696;10.358;2023-05-14T01:19:32;2.63;;;0.85;;
74523;SDS011;63074;44.696;10.358;2023-05-14T01:24:27;1.80;;;1.13;;
74523;SDS011;63074;44.696;10.358;2023-05-14T01:26:54;2.33;;;0.88;;
74523;SDS011;63074;44.696;10.358;2023-05-14T01:29:27;3.65;;;1.42;;
74523;SDS011;63074;44.696;10.358;2023-05-14T01:31:55;2.78;;;1.25;;
74523;SDS011;63074;44.696;10.358;2023-05-14T01:34:24;2.03;;;1.38;;
74523;SDS011;63074;44.696;10.358;2023-05-14T01:36:54;1.75;;;1.17;;
74523;SDS011;63074;44.696;10.358;2023-05-14T01:39:22;1.42;;;1.13;;
74523;SDS011;63074;44.696;10.358;2023-05-14T01:41:50;2.88;;;0.98;;
74523;SDS011;63074;44.696;10.358;2023-05-14T01:44:17;1.73;;;0.68;;
74523;SDS011;63074;44.696;10.358;2023-05-14T01:46:44;2.72;;;0.95;;
74523;SDS011;63074;44.696;10.358;2023-05-14T01:49:10;2.00;;;0.75;;
74523;SDS011;63074;44.696;10.358;2023-05-14T01:51:37;3.05;;;1.27;;
74523;SDS011;63074;44.696;10.358;2023-05-14T01:54:03;1.15;;;0.80;;
74523;SDS011;63074;44.696;10.358;2023-05-14T01:56:29;1.80;;;0.95;;
74523;SDS011;63074;44.696;10.358;2023-05-14T01:58:56;1.60;;;1.05;;
74523;SDS011;63074;44.696;10.358;2023-05-14T02:01:22;1.02;;;0.40;;
74523;SDS011;63074;44.696;10.358;2023-05-14T02:03:50;2.65;;;1.30;;
74523;SDS011;63074;44.696;10.358;2023-05-14T02:06:16;2.20;;;0.95;;
74523;SDS011;63074;44.696;10.358;2023-05-14T02:08:42;1.83;;;0.90;;
74523;SDS011;63074;44.696;10.358;2023-05-14T02:11:08;2.20;;;0.63;;
74523;SDS011;63074;44.696;10.358;2023-05-14T02:13:34;2.70;;;0.93;;
74523;SDS011;63074;44.696;10.358;2023-05-14T02:16:00;1.52;;;0.77;;
74523;SDS011;63074;44.696;10.358;2023-05-14T02:18:31;2.00;;;0.95;;
74523;SDS011;63074;44.696;10.358;2023-05-14T02:20:57;1.67;;;0.88;;
74523;SDS011;63074;44.696;10.358;2023-05-14T02:23:23;1.25;;;0.73;;
74523;SDS011;63074;44.696;10.358;2023-05-14T02:25:50;1.33;;;0.57;;
74523;SDS011;63074;44.696;10.358;2023-05-14T02:28:16;2.42;;;0.85;;
74523;SDS011;63074;44.696;10.358;2023-05-14T02:30:42;2.60;;;0.95;;
74523;SDS011;63074;44.696;10.358;2023-05-14T02:33:08;1.85;;;1.05;;
74523;SDS011;63074;44.696;10.358;2023-05-14T02:35:34;3.50;;;0.90;;
74523;SDS011;63074;44.696;10.358;2023-05-14T02:38:01;1.35;;;0.70;;
74523;SDS011;63074;44.696;10.358;2023-05-14T02:40:27;1.85;;;0.82;;
74523;SDS011;63074;44.696;10.358;2023-05-14T02:42:53;2.38;;;1.02;;
74523;SDS011;63074;44.696;10.358;2023-05-14T02:45:20;1.27;;;0.85;;
74523;SDS011;63074;44.696;10.358;2023-05-14T02:47:46;3.75;;;1.42;;
74523;SDS011;63074;44.696;10.358;2023-05-14T02:50:12;2.47;;;0.95;;
74523;SDS011;63074;44.696;10.358;2023-05-14T02:52:38;2.17;;;0.73;;
74523;SDS011;63074;44.696;10.358;2023-05-14T02:55:04;1.42;;;0.70;;
74523;SDS011;63074;44.696;10.358;2023-05-14T02:57:31;3.83;;;0.98;;
74523;SDS011;63074;44.696;10.358;2023-05-14T02:59:57;2.63;;;0.95;;
74523;SDS011;63074;44.696;10.358;2023-05-14T03:02:29;2.40;;;1.02;;
74523;SDS011;63074;44.696;10.358;2023-05-14T03:04:55;1.38;;;0.50;;
74523;SDS011;63074;44.696;10.358;2023-05-14T03:07:21;2.22;;;1.08;;
74523;SDS011;63074;44.696;10.358;2023-05-14T03:09:47;3.08;;;1.27;;
74523;SDS011;63074;44.696;10.358;2023-05-14T03:12:14;2.55;;;0.90;;
74523;SDS011;63074;44.696;10.358;2023-05-14T03:14:40;2.45;;;1.08;;
74523;SDS011;63074;44.696;10.358;2023-05-14T03:17:06;1.60;;;1.48;;
74523;SDS011;63074;44.696;10.358;2023-05-14T03:19:32;1.95;;;0.52;;
74523;SDS011;63074;44.696;10.358;2023-05-14T03:21:58;1.58;;;1.13;;
74523;SDS011;63074;44.696;10.358;2023-05-14T03:24:25;2.33;;;1.13;;
74523;SDS011;63074;44.696;10.358;2023-05-14T03:26:51;1.73;;;0.77;;
74523;SDS011;63074;44.696;10.358;2023-05-14T03:29:17;1.48;;;1.17;;
74523;SDS011;63074;44.696;10.358;2023-05-14T03:31:43;1.40;;;0.82;;
74523;SDS011;63074;44.696;10.358;2023-05-14T03:34:10;1.83;;;0.80;;
74523;SDS011;63074;44.696;10.358;2023-05-14T03:36:36;2.05;;;0.82;;
74523;SDS011;63074;44.696;10.358;2023-05-14T03:39:03;2.50;;;1.05;;
74523;SDS011;63074;44.696;10.358;2023-05-14T03:41:31;1.77;;;0.77;;
74523;SDS011;63074;44.696;10.358;2023-05-14T03:43:57;1.20;;;0.57;;
74523;SDS011;63074;44.696;10.358;2023-05-14T03:46:23;1.92;;;0.57;;
74523;SDS011;63074;44.696;10.358;2023-05-14T03:48:49;1.15;;;0.73;;
74523;SDS011;63074;44.696;10.358;2023-05-14T03:51:16;2.53;;;0.65;;
74523;SDS011;63074;44.696;10.358;2023-05-14T03:53:42;1.33;;;0.95;;
74523;SDS011;63074;44.696;10.358;2023-05-14T03:56:08;1.42;;;0.55;;
74523;SDS011;63074;44.696;10.358;2023-05-14T03:58:34;1.63;;;0.98;;
74523;SDS011;63074;44.696;10.358;2023-05-14T04:01:00;1.90;;;0.68;;
74523;SDS011;63074;44.696;10.358;2023-05-14T04:03:27;3.05;;;0.65;;
74523;SDS011;63074;44.696;10.358;2023-05-14T04:05:53;1.05;;;0.60;;
74523;SDS011;63074;44.696;10.358;2023-05-14T04:08:19;1.25;;;0.75;;
74523;SDS011;63074;44.696;10.358;2023-05-14T04:10:45;1.63;;;0.57;;
74523;SDS011;63074;44.696;10.358;2023-05-14T04:13:12;2.08;;;0.65;;
74523;SDS011;63074;44.696;10.358;2023-05-14T04:15:38;1.55;;;0.63;;
74523;SDS011;63074;44.696;10.358;2023-05-14T04:18:04;1.35;;;0.60;;
74523;SDS011;63074;44.696;10.358;2023-05-14T04:20:30;2.92;;;0.60;;
74523;SDS011;63074;44.696;10.358;2023-05-14T04:22:56;0.98;;;0.57;;
74523;SDS011;63074;44.696;10.358;2023-05-14T04:25:22;1.13;;;0.45;;
74523;SDS011;63074;44.696;10.358;2023-05-14T04:27:49;2.40;;;0.57;;
74523;SDS011;63074;44.696;10.358;2023-05-14T04:30:15;1.08;;;0.68;;
74523;SDS011;63074;44.696;10.358;2023-05-14T04:32:41;1.65;;;0.77;;
74523;SDS011;63074;44.696;10.358;2023-05-14T04:35:08;3.22;;;1.08;;
74523;SDS011;63074;44.696;10.358;2023-05-14T04:37:34;1.70;;;0.95;;
74523;SDS011;63074;44.696;10.358;2023-05-14T04:40:01;3.05;;;1.10;;
74523;SDS011;63074;44.696;10.358;2023-05-14T04:42:28;3.92;;;1.20;;
74523;SDS011;63074;44.696;10.358;2023-05-14T04:44:55;1.75;;;1.27;;
74523;SDS011;63074;44.696;10.358;2023-05-14T04:47:22;1.98;;;1.38;;
74523;SDS011;63074;44.696;10.358;2023-05-14T04:49:48;2.55;;;1.25;;
74523;SDS011;63074;44.696;10.358;2023-05-14T04:52:15;2.15;;;1.35;;
74523;SDS011;63074;44.696;10.358;2023-05-14T04:54:41;1.63;;;1.08;;
74523;SDS011;63074;44.696;10.358;2023-05-14T04:57:07;3.10;;;1.33;;
74523;SDS011;63074;44.696;10.358;2023-05-14T04:59:33;3.15;;;1.30;;
74523;SDS011;63074;44.696;10.358;2023-05-14T05:01:59;2.40;;;1.42;;
74523;SDS011;63074;44.696;10.358;2023-05-14T05:04:26;2.42;;;1.33;;
74523;SDS011;63074;44.696;10.358;2023-05-14T05:06:52;2.72;;;1.08;;
74523;SDS011;63074;44.696;10.358;2023-05-14T05:09:19;3.17;;;1.38;;
74523;SDS011;63074;44.696;10.358;2023-05-14T05:11:45;2.35;;;1.55;;
74523;SDS011;63074;44.696;10.358;2023-05-14T05:14:11;3.92;;;1.70;;
74523;SDS011;63074;44.696;10.358;2023-05-14T05:16:37;2.38;;;1.30;;
74523;SDS011;63074;44.696;10.358;2023-05-14T05:19:03;1.85;;;1.27;;
74523;SDS011;63074;44.696;10.358;2023-05-14T05:21:29;1.85;;;1.38;;
74523;SDS011;63074;44.696;10.358;2023-05-14T05:23:56;1.73;;;0.98;;
74523;SDS011;63074;44.696;10.358;2023-05-14T05:26:23;3.28;;;1.17;;
74523;SDS011;63074;44.696;10.358;2023-05-14T05:28:50;2.55;;;1.35;;
74523;SDS011;63074;44.696;10.358;2023-05-14T05:31:17;2.17;;;1.40;;
74523;SDS011;63074;44.696;10.358;2023-05-14T05:33:43;4.07;;;1.42;;
74523;SDS011;63074;44.696;10.358;2023-05-14T05:36:10;1.65;;;1.23;;
74523;SDS011;63074;44.696;10.358;2023-05-14T05:38:36;2.85;;;1.40;;
74523;SDS011;63074;44.696;10.358;2023-05-14T05:41:02;1.60;;;1.20;;
74523;SDS011;63074;44.696;10.358;2023-05-14T05:43:30;1.80;;;1.13;;
74523;SDS011;63074;44.696;10.358;2023-05-14T05:45:59;1.65;;;1.13;;
74523;SDS011;63074;44.696;10.358;2023-05-14T05:48:25;1.83;;;0.80;;
74523;SDS011;63074;44.696;10.358;2023-05-14T05:50:52;2.30;;;1.10;;
74523;SDS011;63074;44.696;10.358;2023-05-14T05:53:18;2.05;;;1.35;;
74523;SDS011;63074;44.696;10.358;2023-05-14T05:55:44;1.42;;;1.00;;
74523;SDS011;63074;44.696;10.358;2023-05-14T05:58:10;2.72;;;1.40;;
74523;SDS011;63074;44.696;10.358;2023-05-14T06:00:39;2.33;;;1.05;;
74523;SDS011;63074;44.696;10.358;2023-05-14T06:03:05;1.70;;;1.15;;
74523;SDS011;63074;44.696;10.358;2023-05-14T06:05:32;2.00;;;1.00;;
74523;SDS011;63074;44.696;10.358;2023-05-14T06:07:58;4.18;;;1.52;;
74523;SDS011;63074;44.696;10.358;2023-05-14T06:10:24;2.28;;;1.40;;
74523;SDS011;63074;44.696;10.358;2023-05-14T06:12:50;1.70;;;1.30;;
74523;SDS011;63074;44.696;10.358;2023-05-14T06:15:17;1.92;;;1.10;;
74523;SDS011;63074;44.696;10.358;2023-05-14T06:17:43;3.90;;;1.30;;
74523;SDS011;63074;44.696;10.358;2023-05-14T06:20:09;4.55;;;1.65;;
74523;SDS011;63074;44.696;10.358;2023-05-14T06:22:36;2.58;;;1.40;;
74523;SDS011;63074;44.696;10.358;2023-05-14T06:25:03;4.57;;;1.83;;
74523;SDS011;63074;44.696;10.358;2023-05-14T06:27:29;4.28;;;1.88;;
74523;SDS011;63074;44.696;10.358;2023-05-14T06:29:55;2.97;;;1.50;;
74523;SDS011;63074;44.696;10.358;2023-05-14T06:32:21;3.95;;;2.10;;
74523;SDS011;63074;44.696;10.358;2023-05-14T06:34:51;2.53;;;1.80;;
74523;SDS011;63074;44.696;10.358;2023-05-14T06:37:17;3.78;;;1.83;;
74523;SDS011;63074;44.696;10.358;2023-05-14T06:39:43;4.32;;;1.55;;
74523;SDS011;63074;44.696;10.358;2023-05-14T06:42:14;4.05;;;1.90;;
74523;SDS011;63074;44.696;10.358;2023-05-14T06:44:40;4.88;;;1.77;;
74523;SDS011;63074;44.696;10.358;2023-05-14T06:47:07;2.28;;;1.55;;
74523;SDS011;63074;44.696;10.358;2023-05-14T06:49:33;1.95;;;1.30;;
74523;SDS011;63074;44.696;10.358;2023-05-14T06:52:00;2.35;;;1.48;;
74523;SDS011;63074;44.696;10.358;2023-05-14T06:54:26;4.15;;;1.40;;
74523;SDS011;63074;44.696;10.358;2023-05-14T06:56:53;2.08;;;1.33;;
74523;SDS011;63074;44.696;10.358;2023-05-14T06:59:19;2.33;;;1.63;;
74523;SDS011;63074;44.696;10.358;2023-05-14T07:01:45;3.20;;;1.48;;
74523;SDS011;63074;44.696;10.358;2023-05-14T07:04:11;2.35;;;1.73;;
74523;SDS011;63074;44.696;10.358;2023-05-14T07:06:38;3.00;;;1.40;;
74523;SDS011;63074;44.696;10.358;2023-05-14T07:09:04;3.00;;;1.30;;
74523;SDS011;63074;44.696;10.358;2023-05-14T07:11:31;2.83;;;1.58;;
74523;SDS011;63074;44.696;10.358;2023-05-14T07:13:58;4.20;;;1.60;;
74523;SDS011;63074;44.696;10.358;2023-05-14T07:16:24;2.15;;;1.63;;
74523;SDS011;63074;44.696;10.358;2023-05-14T07:18:51;2.00;;;1.17;;
74523;SDS011;63074;44.696;10.358;2023-05-14T07:21:17;2.08;;;0.88;;
74523;SDS011;63074;44.696;10.358;2023-05-14T07:23:43;2.20;;;1.70;;
74523;SDS011;63074;44.696;10.358;2023-05-14T07:26:09;2.95;;;1.63;;
74523;SDS011;63074;44.696;10.358;2023-05-14T07:28:36;2.60;;;1.08;;
74523;SDS011;63074;44.696;10.358;2023-05-14T07:31:02;1.67;;;1.42;;
74523;SDS011;63074;44.696;10.358;2023-05-14T07:33:33;2.03;;;1.40;;
74523;SDS011;63074;44.696;10.358;2023-05-14T07:36:00;2.03;;;1.13;;
74523;SDS011;63074;44.696;10.358;2023-05-14T07:38:26;3.67;;;1.67;;
74523;SDS011;63074;44.696;10.358;2023-05-14T07:40:53;3.78;;;1.20;;
74523;SDS011;63074;44.696;10.358;2023-05-14T07:43:20;2.47;;;1.40;;
74523;SDS011;63074;44.696;10.358;2023-05-14T07:45:46;2.60;;;1.42;;
74523;SDS011;63074;44.696;10.358;2023-05-14T07:48:12;3.60;;;1.70;;
74523;SDS011;63074;44.696;10.358;2023-05-14T07:50:38;2.35;;;1.58;;
74523;SDS011;63074;44.696;10.358;2023-05-14T07:53:04;3.25;;;1.27;;
74523;SDS011;63074;44.696;10.358;2023-05-14T07:55:30;2.88;;;1.52;;
74523;SDS011;63074;44.696;10.358;2023-05-14T07:57:57;2.80;;;1.60;;
74523;SDS011;63074;44.696;10.358;2023-05-14T08:00:23;2.80;;;1.75;;
74523;SDS011;63074;44.696;10.358;2023-05-14T08:02:49;3.40;;;2.00;;
74523;SDS011;63074;44.696;10.358;2023-05-14T08:05:16;3.28;;;2.05;;
74523;SDS011;63074;44.696;10.358;2023-05-14T08:07:42;2.92;;;1.80;;
74523;SDS011;63074;44.696;10.358;2023-05-14T08:10:08;2.97;;;1.73;;
74523;SDS011;63074;44.696;10.358;2023-05-14T08:12:35;3.65;;;2.25;;
74523;SDS011;63074;44.696;10.358;2023-05-14T08:15:01;4.63;;;2.17;;
74523;SDS011;63074;44.696;10.358;2023-05-14T08:17:27;5.55;;;2.30;;
74523;SDS011;63074;44.696;10.358;2023-05-14T08:19:54;4.20;;;2.25;;
74523;SDS011;63074;44.696;10.358;2023-05-14T08:22:20;5.13;;;2.33;;
74523;SDS011;63074;44.696;10.358;2023-05-14T08:24:46;6.28;;;3.22;;
74523;SDS011;63074;44.696;10.358;2023-05-14T08:27:12;6.40;;;4.13;;
74523;SDS011;63074;44.696;10.358;2023-05-14T08:29:40;6.15;;;3.42;;
74523;SDS011;63074;44.696;10.358;2023-05-14T08:32:07;5.65;;;3.05;;
74523;SDS011;63074;44.696;10.358;2023-05-14T08:34:35;6.35;;;3.97;;
74523;SDS011;63074;44.696;10.358;2023-05-14T08:37:01;5.95;;;4.10;;
74523;SDS011;63074;44.696;10.358;2023-05-14T08:39:27;5.50;;;3.53;;
74523;SDS011;63074;44.696;10.358;2023-05-14T08:41:54;5.82;;;3.50;;
74523;SDS011;63074;44.696;10.358;2023-05-14T08:44:29;5.03;;;3.20;;
74523;SDS011;63074;44.696;10.358;2023-05-14T08:47:03;3.60;;;2.28;;
74523;SDS011;63074;44.696;10.358;2023-05-14T08:52:10;4.70;;;3.38;;
74523;SDS011;63074;44.696;10.358;2023-05-14T08:54:37;5.10;;;3.35;;
74523;SDS011;63074;44.696;10.358;2023-05-14T08:57:09;4.95;;;2.58;;
74523;SDS011;63074;44.696;10.358;2023-05-14T08:59:37;6.78;;;2.60;;
74523;SDS011;63074;44.696;10.358;2023-05-14T09:02:03;5.07;;;3.10;;
74523;SDS011;63074;44.696;10.358;2023-05-14T09:04:30;4.90;;;2.85;;
74523;SDS011;63074;44.696;10.358;2023-05-14T09:06:58;6.10;;;3.35;;
74523;SDS011;63074;44.696;10.358;2023-05-14T09:09:27;4.85;;;2.65;;
74523;SDS011;63074;44.696;10.358;2023-05-14T09:11:54;5.20;;;3.35;;
74523;SDS011;63074;44.696;10.358;2023-05-14T09:14:20;4.88;;;3.25;;
74523;SDS011;63074;44.696;10.358;2023-05-14T09:16:48;5.22;;;3.45;;
74523;SDS011;63074;44.696;10.358;2023-05-14T09:19:15;5.80;;;3.45;;
74523;SDS011;63074;44.696;10.358;2023-05-14T09:21:44;6.40;;;3.97;;
74523;SDS011;63074;44.696;10.358;2023-05-14T09:24:21;4.93;;;3.85;;
74523;SDS011;63074;44.696;10.358;2023-05-14T09:26:49;5.53;;;2.90;;
74523;SDS011;63074;44.696;10.358;2023-05-14T09:29:20;4.95;;;3.10;;
74523;SDS011;63074;44.696;10.358;2023-05-14T09:31:50;4.22;;;2.55;;
74523;SDS011;63074;44.696;10.358;2023-05-14T09:34:24;4.47;;;3.67;;
74523;SDS011;63074;44.696;10.358;2023-05-14T09:36:56;3.72;;;2.70;;
74523;SDS011;63074;44.696;10.358;2023-05-14T09:39:25;4.45;;;3.05;;
74523;SDS011;63074;44.696;10.358;2023-05-14T09:41:51;6.78;;;2.75;;
74523;SDS011;63074;44.696;10.358;2023-05-14T09:44:18;5.80;;;3.25;;
74523;SDS011;63074;44.696;10.358;2023-05-14T09:46:45;3.38;;;2.63;;
74523;SDS011;63074;44.696;10.358;2023-05-14T09:49:12;4.03;;;2.63;;
74523;SDS011;63074;44.696;10.358;2023-05-14T09:51:39;4.53;;;3.00;;
74523;SDS011;63074;44.696;10.358;2023-05-14T09:54:06;3.75;;;2.45;;
74523;SDS011;63074;44.696;10.358;2023-05-14T09:56:33;3.78;;;2.45;;
74523;SDS011;63074;44.696;10.358;2023-05-14T09:59:00;3.10;;;2.40;;
74523;SDS011;63074;44.696;10.358;2023-05-14T10:01:27;4.82;;;2.75;;
74523;SDS011;63074;44.696;10.358;2023-05-14T10:03:56;4.82;;;2.35;;
74523;SDS011;63074;44.696;10.358;2023-05-14T10:06:24;2.35;;;1.60;;
74523;SDS011;63074;44.696;10.358;2023-05-14T10:08:53;3.33;;;2.13;;
74523;SDS011;63074;44.696;10.358;2023-05-14T10:11:23;3.80;;;2.22;;
74523;SDS011;63074;44.696;10.358;2023-05-14T10:13:58;3.90;;;2.88;;
74523;SDS011;63074;44.696;10.358;2023-05-14T10:16:39;3.83;;;2.50;;
74523;SDS011;63074;44.696;10.358;2023-05-14T10:19:08;3.80;;;2.38;;
74523;SDS011;63074;44.696;10.358;2023-05-14T10:21:36;3.00;;;2.20;;
74523;SDS011;63074;44.696;10.358;2023-05-14T10:24:05;4.00;;;2.58;;
74523;SDS011;63074;44.696;10.358;2023-05-14T10:26:33;2.80;;;1.70;;
74523;SDS011;63074;44.696;10.358;2023-05-14T10:29:05;3.17;;;1.58;;
74523;SDS011;63074;44.696;10.358;2023-05-14T10:34:31;3.88;;;2.10;;
74523;SDS011;63074;44.696;10.358;2023-05-14T10:37:10;3.70;;;2.25;;
74523;SDS011;63074;44.696;10.358;2023-05-14T10:39:58;3.30;;;2.10;;
74523;SDS011;63074;44.696;10.358;2023-05-14T10:42:27;3.28;;;1.88;;
74523;SDS011;63074;44.696;10.358;2023-05-14T10:44:57;3.55;;;2.03;;
74523;SDS011;63074;44.696;10.358;2023-05-14T10:47:31;3.13;;;2.30;;
74523;SDS011;63074;44.696;10.358;2023-05-14T10:50:00;2.53;;;2.05;;
74523;SDS011;63074;44.696;10.358;2023-05-14T10:57:25;2.67;;;1.73;;
74523;SDS011;63074;44.696;10.358;2023-05-14T10:59:54;4.65;;;2.25;;
74523;SDS011;63074;44.696;10.358;2023-05-14T11:05:01;1.23;;;0.90;;
74523;SDS011;63074;44.696;10.358;2023-05-14T11:07:30;2.28;;;1.13;;
74523;SDS011;63074;44.696;10.358;2023-05-14T11:10:06;1.27;;;0.63;;
74523;SDS011;63074;44.696;10.358;2023-05-14T11:12:34;1.63;;;0.85;;
74523;SDS011;63074;44.696;10.358;2023-05-14T11:15:06;1.77;;;0.98;;
74523;SDS011;63074;44.696;10.358;2023-05-14T11:17:34;2.05;;;0.77;;
74523;SDS011;63074;44.696;10.358;2023-05-14T11:20:01;1.48;;;0.55;;
74523;SDS011;63074;44.696;10.358;2023-05-14T11:22:29;1.50;;;0.80;;
74523;SDS011;63074;44.696;10.358;2023-05-14T11:24:55;1.42;;;0.70;;
74523;SDS011;63074;44.696;10.358;2023-05-14T11:27:21;1.15;;;0.65;;
74523;SDS011;63074;44.696;10.358;2023-05-14T11:29:48;1.70;;;1.00;;
74523;SDS011;63074;44.696;10.358;2023-05-14T11:32:15;2.17;;;0.98;;
74523;SDS011;63074;44.696;10.358;2023-05-14T11:34:42;0.98;;;0.63;;
74523;SDS011;63074;44.696;10.358;2023-05-14T11:37:10;1.60;;;1.10;;
74523;SDS011;63074;44.696;10.358;2023-05-14T11:39:37;1.38;;;0.63;;
74523;SDS011;63074;44.696;10.358;2023-05-14T11:42:06;1.88;;;1.17;;
74523;SDS011;63074;44.696;10.358;2023-05-14T11:49:35;2.25;;;1.50;;
74523;SDS011;63074;44.696;10.358;2023-05-14T11:52:02;1.60;;;0.75;;
74523;SDS011;63074;44.696;10.358;2023-05-14T11:54:30;1.55;;;1.05;;
74523;SDS011;63074;44.696;10.358;2023-05-14T11:56:58;1.58;;;0.95;;
74523;SDS011;63074;44.696;10.358;2023-05-14T11:59:34;1.73;;;1.23;;
74523;SDS011;63074;44.696;10.358;2023-05-14T12:02:03;1.58;;;0.85;;
74523;SDS011;63074;44.696;10.358;2023-05-14T12:04:32;1.67;;;0.82;;
74523;SDS011;63074;44.696;10.358;2023-05-14T12:06:58;1.38;;;0.98;;
74523;SDS011;63074;44.696;10.358;2023-05-14T12:09:34;2.05;;;1.42;;
74523;SDS011;63074;44.696;10.358;2023-05-14T12:12:12;1.33;;;0.63;;
74523;SDS011;63074;44.696;10.358;2023-05-14T12:14:39;2.10;;;1.27;;
74523;SDS011;63074;44.696;10.358;2023-05-14T12:17:11;1.23;;;0.70;;
74523;SDS011;63074;44.696;10.358;2023-05-14T12:19:40;1.60;;;0.93;;
74523;SDS011;63074;44.696;10.358;2023-05-14T12:22:09;1.55;;;0.75;;
74523;SDS011;63074;44.696;10.358;2023-05-14T12:24:36;1.63;;;0.60;;
74523;SDS011;63074;44.696;10.358;2023-05-14T12:27:04;2.03;;;0.80;;
74523;SDS011;63074;44.696;10.358;2023-05-14T12:29:34;1.55;;;0.73;;
74523;SDS011;63074;44.696;10.358;2023-05-14T12:32:02;1.50;;;1.08;;
74523;SDS011;63074;44.696;10.358;2023-05-14T12:34:33;1.85;;;1.33;;
74523;SDS011;63074;44.696;10.358;2023-05-14T12:36:59;1.48;;;0.70;;
74523;SDS011;63074;44.696;10.358;2023-05-14T12:39:26;1.20;;;0.90;;
74523;SDS011;63074;44.696;10.358;2023-05-14T12:41:52;1.13;;;0.73;;
74523;SDS011;63074;44.696;10.358;2023-05-14T12:44:18;1.73;;;0.80;;
74523;SDS011;63074;44.696;10.358;2023-05-14T12:46:46;1.75;;;0.70;;
74523;SDS011;63074;44.696;10.358;2023-05-14T12:49:12;1.05;;;0.95;;
74523;SDS011;63074;44.696;10.358;2023-05-14T12:51:38;1.90;;;0.98;;
74523;SDS011;63074;44.696;10.358;2023-05-14T12:54:05;0.70;;;0.47;;
74523;SDS011;63074;44.696;10.358;2023-05-14T12:56:31;0.90;;;0.40;;
74523;SDS011;63074;44.696;10.358;2023-05-14T12:58:57;1.48;;;0.85;;
74523;SDS011;63074;44.696;10.358;2023-05-14T13:01:23;0.98;;;0.57;;
74523;SDS011;63074;44.696;10.358;2023-05-14T13:03:49;0.95;;;0.57;;
74523;SDS011;63074;44.696;10.358;2023-05-14T13:06:15;1.90;;;0.60;;
74523;SDS011;63074;44.696;10.358;2023-05-14T13:08:42;1.20;;;0.40;;
74523;SDS011;63074;44.696;10.358;2023-05-14T13:11:08;1.40;;;0.55;;
74523;SDS011;63074;44.696;10.358;2023-05-14T13:13:35;1.05;;;0.65;;
74523;SDS011;63074;44.696;10.358;2023-05-14T13:16:01;1.00;;;0.40;;
74523;SDS011;63074;44.696;10.358;2023-05-14T13:18:27;1.65;;;0.80;;
74523;SDS011;63074;44.696;10.358;2023-05-14T13:20:53;0.90;;;0.40;;
74523;SDS011;63074;44.696;10.358;2023-05-14T13:23:19;1.30;;;0.57;;
74523;SDS011;63074;44.696;10.358;2023-05-14T13:25:46;1.98;;;1.00;;
74523;SDS011;63074;44.696;10.358;2023-05-14T13:28:12;0.80;;;0.40;;
74523;SDS011;63074;44.696;10.358;2023-05-14T13:30:38;1.42;;;0.47;;
74523;SDS011;63074;44.696;10.358;2023-05-14T13:33:04;0.70;;;0.50;;
74523;SDS011;63074;44.696;10.358;2023-05-14T13:35:30;0.75;;;0.32;;
74523;SDS011;63074;44.696;10.358;2023-05-14T13:37:57;0.70;;;0.60;;
74523;SDS011;63074;44.696;10.358;2023-05-14T13:40:23;0.77;;;0.30;;
74523;SDS011;63074;44.696;10.358;2023-05-14T13:42:49;1.20;;;0.30;;
74523;SDS011;63074;44.696;10.358;2023-05-14T13:45:15;0.90;;;0.57;;
74523;SDS011;63074;44.696;10.358;2023-05-14T13:47:42;1.35;;;0.52;;
74523;SDS011;63074;44.696;10.358;2023-05-14T13:50:08;2.50;;;0.60;;
74523;SDS011;63074;44.696;10.358;2023-05-14T13:52:34;0.73;;;0.30;;
74523;SDS011;63074;44.696;10.358;2023-05-14T13:55:03;1.30;;;0.70;;
74523;SDS011;63074;44.696;10.358;2023-05-14T13:57:29;1.42;;;0.40;;
74523;SDS011;63074;44.696;10.358;2023-05-14T13:59:55;3.25;;;0.20;;
74523;SDS011;63074;44.696;10.358;2023-05-14T14:02:21;1.15;;;0.50;;
74523;SDS011;63074;44.696;10.358;2023-05-14T14:04:47;0.70;;;0.52;;
74523;SDS011;63074;44.696;10.358;2023-05-14T14:07:14;0.63;;;0.35;;
74523;SDS011;63074;44.696;10.358;2023-05-14T14:09:40;0.57;;;0.40;;
74523;SDS011;63074;44.696;10.358;2023-05-14T14:12:06;1.95;;;0.30;;
74523;SDS011;63074;44.696;10.358;2023-05-14T14:14:33;1.05;;;0.45;;
74523;SDS011;63074;44.696;10.358;2023-05-14T14:16:59;1.58;;;0.40;;
74523;SDS011;63074;44.696;10.358;2023-05-14T14:19:25;0.88;;;0.40;;
74523;SDS011;63074;44.696;10.358;2023-05-14T14:21:51;0.57;;;0.32;;
74523;SDS011;63074;44.696;10.358;2023-05-14T14:24:17;0.93;;;0.50;;
74523;SDS011;63074;44.696;10.358;2023-05-14T14:26:44;1.13;;;0.68;;
74523;SDS011;63074;44.696;10.358;2023-05-14T14:29:10;1.55;;;0.32;;
74523;SDS011;63074;44.696;10.358;2023-05-14T14:31:36;0.77;;;0.28;;
74523;SDS011;63074;44.696;10.358;2023-05-14T14:34:02;1.20;;;0.50;;
74523;SDS011;63074;44.696;10.358;2023-05-14T14:36:28;1.23;;;0.52;;
74523;SDS011;63074;44.696;10.358;2023-05-14T14:38:55;0.55;;;0.55;;
74523;SDS011;63074;44.696;10.358;2023-05-14T14:41:22;0.95;;;0.60;;
74523;SDS011;63074;44.696;10.358;2023-05-14T14:43:48;0.77;;;0.77;;
74523;SDS011;63074;44.696;10.358;2023-05-14T14:46:14;0.40;;;0.30;;
74523;SDS011;63074;44.696;10.358;2023-05-14T14:48:40;0.68;;;0.40;;
74523;SDS011;63074;44.696;10.358;2023-05-14T14:51:08;1.55;;;0.40;;
74523;SDS011;63074;44.696;10.358;2023-05-14T14:53:34;0.73;;;0.35;;
74523;SDS011;63074;44.696;10.358;2023-05-14T14:56:01;1.05;;;0.40;;
74523;SDS011;63074;44.696;10.358;2023-05-14T14:58:28;0.60;;;0.45;;
74523;SDS011;63074;44.696;10.358;2023-05-14T15:00:55;1.27;;;0.40;;
74523;SDS011;63074;44.696;10.358;2023-05-14T15:03:22;1.05;;;0.63;;
74523;SDS011;63074;44.696;10.358;2023-05-14T15:05:49;0.75;;;0.50;;